createdAt,value
2023-05-22T00:01:42.025Z,10.80
2023-05-22T00:04:08.157Z,11.43
2023-05-22T00:06:34.285Z,10.87
2023-05-22T00:09:00.466Z,10.97
2023-05-22T00:11:26.607Z,11.57
2023-05-22T00:13:52.854Z,10.70
2023-05-22T00:16:19.065Z,11.90
2023-05-22T00:18:45.287Z,11.73
2023-05-22T00:21:11.433Z,10.80
2023-05-22T00:23:37.623Z,11.27
2023-05-22T00:26:03.987Z,10.80
2023-05-22T00:28:30.148Z,11.30
2023-05-22T00:30:56.252Z,11.30
2023-05-22T00:33:22.379Z,11.53
2023-05-22T00:35:48.513Z,11.13
2023-05-22T00:38:37.101Z,11.40
2023-05-22T00:41:05.230Z,11.27
2023-05-22T00:43:31.804Z,11.50
2023-05-22T00:45:58.331Z,11.50
2023-05-22T00:48:24.929Z,11.70
2023-05-22T00:50:51.882Z,11.10
2023-05-22T00:53:21.823Z,10.40
2023-05-22T00:55:48.049Z,10.67
2023-05-22T00:58:16.811Z,10.43
2023-05-22T01:00:43.291Z,11.30
2023-05-22T01:03:10.084Z,11.30
2023-05-22T01:05:37.042Z,10.70
2023-05-22T01:08:03.948Z,10.63
2023-05-22T01:10:30.296Z,11.00
2023-05-22T01:13:02.901Z,11.10
2023-05-22T01:15:43.048Z,11.30
2023-05-22T01:18:43.791Z,11.60
2023-05-22T01:21:17.654Z,11.23
2023-05-22T01:23:56.876Z,11.37
2023-05-22T01:26:49.188Z,10.80
2023-05-22T01:29:47.972Z,10.47
2023-05-22T01:32:16.952Z,11.07
2023-05-22T01:34:44.992Z,11.93
2023-05-22T01:37:11.658Z,11.10
2023-05-22T01:39:38.427Z,11.10
2023-05-22T01:42:05.151Z,11.50
2023-05-22T01:44:31.283Z,10.73
2023-05-22T01:46:59.873Z,10.90
2023-05-22T01:49:27.530Z,11.53
2023-05-22T01:52:01.325Z,11.30
2023-05-22T01:54:38.414Z,11.60
2023-05-22T01:57:13.730Z,11.57
2023-05-22T01:59:44.875Z,10.80
2023-05-22T02:02:14.175Z,11.93
2023-05-22T02:04:42.739Z,11.70
2023-05-22T02:07:12.230Z,10.53
2023-05-22T02:09:40.369Z,11.83
2023-05-22T02:12:07.400Z,11.20
2023-05-22T02:14:33.984Z,10.73
2023-05-22T02:17:01.444Z,10.13
2023-05-22T02:19:27.824Z,11.60
2023-05-22T02:21:54.078Z,11.80
2023-05-22T02:24:20.751Z,11.53
2023-05-22T02:26:47.367Z,11.00
2023-05-22T02:29:13.476Z,11.50
2023-05-22T02:31:39.688Z,10.90
2023-05-22T02:34:05.891Z,11.47
2023-05-22T02:36:32.009Z,11.37
2023-05-22T02:38:59.042Z,11.60
2023-05-22T02:41:25.276Z,10.90
2023-05-22T02:43:51.382Z,10.63
2023-05-22T02:46:17.551Z,10.80
2023-05-22T02:48:44.810Z,11.30
2023-05-22T02:51:11.235Z,11.53
2023-05-22T02:53:39.585Z,11.23
2023-05-22T02:56:12.533Z,11.80
2023-05-22T02:58:38.881Z,10.90
2023-05-22T03:01:08.356Z,10.93
2023-05-22T03:03:34.856Z,10.33
2023-05-22T03:06:03.459Z,11.00
2023-05-22T03:08:30.952Z,11.30
2023-05-22T03:10:58.180Z,11.03
2023-05-22T03:13:24.489Z,10.90
2023-05-22T03:15:51.156Z,10.87
2023-05-22T03:18:17.466Z,10.90
2023-05-22T03:20:43.642Z,11.40
2023-05-22T03:23:11.058Z,10.90
2023-05-22T03:25:37.320Z,11.30
2023-05-22T03:28:03.655Z,11.07
2023-05-22T03:30:29.795Z,12.37
2023-05-22T03:32:55.994Z,11.70
2023-05-22T03:35:24.030Z,10.93
2023-05-22T03:37:50.187Z,12.17
2023-05-22T03:40:16.400Z,12.20
2023-05-22T03:42:42.506Z,11.27
2023-05-22T03:45:09.004Z,10.93
2023-05-22T03:47:35.535Z,11.33
2023-05-22T03:50:01.675Z,10.80
2023-05-22T03:52:27.786Z,10.33
2023-05-22T03:54:53.876Z,12.23
2023-05-22T03:57:20.084Z,11.23
2023-05-22T03:59:46.324Z,11.40
2023-05-22T04:02:15.934Z,11.60
2023-05-22T04:04:45.530Z,11.83
2023-05-22T04:07:12.752Z,12.00
2023-05-22T04:09:40.157Z,10.53
2023-05-22T04:12:06.872Z,11.10
2023-05-22T04:14:33.079Z,10.87
2023-05-22T04:16:59.240Z,10.90
2023-05-22T04:19:27.422Z,12.03
2023-05-22T04:21:54.165Z,11.50
2023-05-22T04:24:22.391Z,12.03
2023-05-22T04:26:49.255Z,12.00
2023-05-22T04:29:15.913Z,10.67
2023-05-22T04:31:42.556Z,10.97
2023-05-22T04:34:12.229Z,12.30
2023-05-22T04:36:38.345Z,11.93
2023-05-22T04:39:04.484Z,12.10
2023-05-22T04:41:31.844Z,12.00
2023-05-22T04:43:59.696Z,12.40
2023-05-22T04:46:27.965Z,12.10
2023-05-22T04:48:54.192Z,12.00
2023-05-22T04:51:22.242Z,12.20
2023-05-22T04:53:49.162Z,11.63
2023-05-22T04:56:21.316Z,11.73
2023-05-22T04:58:55.108Z,11.20
2023-05-22T05:01:21.653Z,11.10
2023-05-22T05:03:48.065Z,11.97
2023-05-22T05:06:14.249Z,11.90
2023-05-22T05:08:42.295Z,10.90
2023-05-22T05:11:08.482Z,10.80
2023-05-22T05:13:34.685Z,11.67
2023-05-22T05:16:00.890Z,12.63
2023-05-22T05:18:27.483Z,12.10
2023-05-22T05:20:53.910Z,11.20
2023-05-22T05:23:20.349Z,10.90
2023-05-22T05:25:46.458Z,10.67
2023-05-22T05:28:12.607Z,11.37
2023-05-22T05:30:39.635Z,12.00
2023-05-22T05:33:06.578Z,12.30
2023-05-22T05:35:32.903Z,11.10
2023-05-22T05:37:59.019Z,11.40
2023-05-22T05:40:25.126Z,12.00
2023-05-22T05:42:51.263Z,11.00
2023-05-22T05:45:17.420Z,11.53
2023-05-22T05:47:43.690Z,11.33
2023-05-22T05:50:10.453Z,11.77
2023-05-22T05:52:36.802Z,11.60
2023-05-22T05:55:03.069Z,11.63
2023-05-22T05:57:29.258Z,11.50
2023-05-22T05:59:55.490Z,11.90
2023-05-22T06:02:21.852Z,11.07
2023-05-22T06:04:48.561Z,11.93
2023-05-22T06:07:15.013Z,11.30
2023-05-22T06:09:41.766Z,12.10
2023-05-22T06:12:12.057Z,11.97
2023-05-22T06:14:39.532Z,11.53
2023-05-22T06:17:08.436Z,13.30
2023-05-22T06:19:34.912Z,17.50
2023-05-22T06:22:01.084Z,16.17
2023-05-22T06:24:27.304Z,12.27
2023-05-22T06:26:53.416Z,12.30
2023-05-22T06:29:19.558Z,11.43
2023-05-22T06:31:45.788Z,12.43
2023-05-22T06:34:12.036Z,11.90
2023-05-22T06:36:38.249Z,12.50
2023-05-22T06:39:04.426Z,10.70
2023-05-22T06:41:31.909Z,11.40
2023-05-22T06:43:58.052Z,11.70
2023-05-22T06:46:25.930Z,12.20
2023-05-22T06:48:52.529Z,11.10
2023-05-22T06:51:18.632Z,10.73
2023-05-22T06:53:45.020Z,10.70
2023-05-22T06:56:11.166Z,9.70
2023-05-22T06:58:38.739Z,11.23
2023-05-22T07:01:05.172Z,10.90
2023-05-22T07:03:31.404Z,11.57
2023-05-22T07:05:58.647Z,10.13
2023-05-22T07:08:25.848Z,11.30
2023-05-22T07:10:53.005Z,12.07
2023-05-22T07:13:19.141Z,11.57
2023-05-22T07:15:46.576Z,12.30
2023-05-22T07:18:12.960Z,11.00
2023-05-22T07:20:39.387Z,11.40
2023-05-22T07:23:06.854Z,11.00
2023-05-22T07:25:32.986Z,11.00
2023-05-22T07:28:01.349Z,10.87
2023-05-22T07:30:27.639Z,10.63
2023-05-22T07:32:53.839Z,11.30
2023-05-22T07:35:20.027Z,10.87
2023-05-22T07:37:46.169Z,10.80
2023-05-22T07:40:12.659Z,10.23
2023-05-22T07:42:38.853Z,10.40
2023-05-22T07:45:05.766Z,11.27
2023-05-22T07:47:31.863Z,11.43
2023-05-22T07:49:58.039Z,11.60
2023-05-22T07:52:24.341Z,10.83
2023-05-22T07:54:50.519Z,10.97
2023-05-22T07:57:16.983Z,10.87
2023-05-22T07:59:43.441Z,10.10
2023-05-22T08:02:09.619Z,9.80
2023-05-22T08:04:36.064Z,10.63
2023-05-22T08:07:02.588Z,10.47
2023-05-22T08:09:28.729Z,10.90
2023-05-22T08:11:54.888Z,11.17
2023-05-22T08:14:21.633Z,9.67
2023-05-22T08:16:48.189Z,10.50
2023-05-22T08:19:14.503Z,10.37
2023-05-22T08:21:40.791Z,10.07
2023-05-22T08:24:07.540Z,10.03
2023-05-22T08:26:33.695Z,9.70
2023-05-22T08:29:00.280Z,9.30
2023-05-22T08:31:28.595Z,10.40
2023-05-22T08:34:01.512Z,10.13
2023-05-22T08:36:30.831Z,9.93
2023-05-22T08:38:56.922Z,9.53
2023-05-22T08:41:23.069Z,10.70
2023-05-22T08:43:49.210Z,9.50
2023-05-22T08:46:15.557Z,11.60
2023-05-22T08:48:41.916Z,10.00
2023-05-22T08:51:13.109Z,9.50
2023-05-22T08:53:40.072Z,9.90
2023-05-22T08:56:07.853Z,9.80
2023-05-22T08:58:35.144Z,8.73
2023-05-22T09:01:02.186Z,9.10
2023-05-22T09:03:32.280Z,10.90
2023-05-22T09:05:59.029Z,9.53
2023-05-22T09:08:25.544Z,9.00
2023-05-22T09:10:51.822Z,9.90
2023-05-22T09:13:26.641Z,10.40
2023-05-22T09:15:53.212Z,9.30
2023-05-22T09:18:21.350Z,9.00
2023-05-22T09:20:47.462Z,9.30
2023-05-22T09:23:17.003Z,9.87
2023-05-22T09:25:44.173Z,10.03
2023-05-22T09:28:11.302Z,9.17
2023-05-22T09:30:37.818Z,9.00
2023-05-22T09:33:08.240Z,9.30
2023-05-22T09:35:39.141Z,9.97
2023-05-22T09:38:05.797Z,9.00
2023-05-22T09:40:34.243Z,8.80
2023-05-22T09:43:01.759Z,9.07
2023-05-22T09:45:28.224Z,9.00
2023-05-22T09:47:54.732Z,8.77
2023-05-22T09:50:21.140Z,8.70
2023-05-22T09:52:48.318Z,9.13
2023-05-22T09:55:15.378Z,9.80
2023-05-22T09:57:43.611Z,9.43
2023-05-22T10:00:16.861Z,9.47
2023-05-22T10:02:47.831Z,8.87
2023-05-22T10:05:20.665Z,9.57
2023-05-22T10:07:51.511Z,9.20
2023-05-22T10:10:20.806Z,10.20
2023-05-22T10:12:51.731Z,8.87
2023-05-22T10:15:18.492Z,9.10
2023-05-22T10:17:45.034Z,9.00
2023-05-22T10:20:12.038Z,8.63
2023-05-22T10:22:38.612Z,8.97
2023-05-22T10:25:06.141Z,9.47
2023-05-22T10:27:33.196Z,9.20
2023-05-22T10:30:16.362Z,8.60
2023-05-22T10:33:09.445Z,9.03
2023-05-22T10:35:40.280Z,9.50
2023-05-22T10:38:30.863Z,8.53
2023-05-22T10:40:57.683Z,8.63
2023-05-22T10:43:24.932Z,8.57
2023-05-22T10:46:01.641Z,9.10
2023-05-22T10:48:27.846Z,8.93
2023-05-22T10:50:53.984Z,9.03
2023-05-22T10:53:22.176Z,8.63
2023-05-22T10:55:53.282Z,8.70
2023-05-22T10:58:30.124Z,8.83
2023-05-22T11:01:15.131Z,9.10
2023-05-22T11:04:01.121Z,9.27
2023-05-22T11:06:41.581Z,9.13
2023-05-22T11:09:29.191Z,9.70
2023-05-22T11:12:23.666Z,9.00
2023-05-22T11:15:06.391Z,9.20
2023-05-22T11:17:36.926Z,9.23
2023-05-22T11:20:17.740Z,8.90
2023-05-22T11:22:51.266Z,9.53
2023-05-22T11:25:19.224Z,8.83
2023-05-22T11:27:47.004Z,9.90
2023-05-22T11:30:14.336Z,8.50
2023-05-22T11:32:45.367Z,8.50
2023-05-22T11:35:16.524Z,8.77
2023-05-22T11:37:42.783Z,10.13
2023-05-22T11:40:10.100Z,8.30
2023-05-22T11:42:37.016Z,9.37
2023-05-22T11:45:04.392Z,8.73
2023-05-22T11:47:31.065Z,8.13
2023-05-22T11:49:57.686Z,8.40
2023-05-22T11:52:23.860Z,9.10
2023-05-22T11:54:51.654Z,8.00
2023-05-22T11:57:18.705Z,8.73
2023-05-22T11:59:46.273Z,8.60
2023-05-22T12:02:13.767Z,8.80
2023-05-22T12:04:40.407Z,8.50
2023-05-22T12:07:07.024Z,9.40
2023-05-22T12:09:33.409Z,8.97
2023-05-22T12:12:00.156Z,8.93
2023-05-22T12:14:27.489Z,9.40
2023-05-22T12:16:54.345Z,9.27
2023-05-22T12:19:21.067Z,9.60
2023-05-22T12:21:50.130Z,8.73
2023-05-22T12:24:20.882Z,8.70
2023-05-22T12:26:51.166Z,8.07
2023-05-22T12:29:18.399Z,8.87
2023-05-22T12:31:45.845Z,8.17
2023-05-22T12:34:12.057Z,7.73
2023-05-22T12:36:39.697Z,8.50
2023-05-22T12:39:16.213Z,8.47
2023-05-22T12:41:43.631Z,8.27
2023-05-22T12:44:10.212Z,8.10
2023-05-22T12:46:37.921Z,7.77
2023-05-22T12:49:04.317Z,8.20
2023-05-22T12:51:31.580Z,8.50
2023-05-22T12:53:58.559Z,8.17
2023-05-22T12:56:25.016Z,9.10
2023-05-22T12:58:51.181Z,7.20
2023-05-22T13:01:17.710Z,7.70
2023-05-22T13:03:45.145Z,8.10
2023-05-22T13:06:11.781Z,7.60
2023-05-22T13:08:38.474Z,8.17
2023-05-22T13:11:04.830Z,7.77
2023-05-22T13:13:31.000Z,7.63
2023-05-22T13:15:57.180Z,8.23
2023-05-22T13:18:23.383Z,7.27
2023-05-22T13:20:49.682Z,7.30
2023-05-22T13:23:15.791Z,7.57
2023-05-22T13:25:42.006Z,8.63
2023-05-22T13:28:08.326Z,7.97
2023-05-22T13:30:34.513Z,8.00
2023-05-22T13:33:00.701Z,8.07
2023-05-22T13:35:26.864Z,7.40
2023-05-22T13:37:53.076Z,7.80
2023-05-22T13:40:19.241Z,7.20
2023-05-22T13:42:45.504Z,7.73
2023-05-22T13:45:11.713Z,7.40
2023-05-22T13:47:37.952Z,7.43
2023-05-22T13:50:04.808Z,7.90
2023-05-22T13:52:30.921Z,7.03
2023-05-22T13:54:57.088Z,7.30
2023-05-22T13:57:23.261Z,7.00
2023-05-22T13:59:49.420Z,7.30
2023-05-22T14:02:15.635Z,7.40
2023-05-22T14:04:41.792Z,6.87
2023-05-22T14:07:07.929Z,6.47
2023-05-22T14:09:34.067Z,6.67
2023-05-22T14:12:00.228Z,6.70
2023-05-22T14:14:26.317Z,6.80
2023-05-22T14:16:52.992Z,6.90
2023-05-22T14:19:20.100Z,6.67
2023-05-22T14:21:48.870Z,7.23
2023-05-22T14:24:15.304Z,7.07
2023-05-22T14:26:41.651Z,8.00
2023-05-22T14:29:07.947Z,8.90
2023-05-22T14:31:45.209Z,7.63
2023-05-22T14:34:11.362Z,6.90
2023-05-22T14:36:37.592Z,7.27
2023-05-22T14:39:04.463Z,7.40
2023-05-22T14:41:30.869Z,6.57
2023-05-22T14:43:56.958Z,6.50
2023-05-22T14:46:23.160Z,7.00
2023-05-22T14:48:49.365Z,7.77
2023-05-22T14:51:19.105Z,7.30
2023-05-22T14:53:45.287Z,8.40
2023-05-22T14:56:11.392Z,10.07
2023-05-22T14:58:37.504Z,9.43
2023-05-22T15:01:03.853Z,9.40
2023-05-22T15:03:30.762Z,9.67
2023-05-22T15:05:56.916Z,9.70
2023-05-22T15:08:23.141Z,9.80
2023-05-22T15:10:49.331Z,10.70
2023-05-22T15:13:15.483Z,10.10
2023-05-22T15:15:41.825Z,9.70
2023-05-22T15:18:08.333Z,10.20
2023-05-22T15:20:34.855Z,10.17
2023-05-22T15:23:01.224Z,9.10
2023-05-22T15:25:27.471Z,11.23
2023-05-22T15:27:53.610Z,9.80
2023-05-22T15:30:22.028Z,9.43
2023-05-22T15:32:48.366Z,13.23
2023-05-22T15:35:14.642Z,8.83
2023-05-22T15:37:40.892Z,9.30
2023-05-22T15:40:09.036Z,9.00
2023-05-22T15:42:35.226Z,8.57
2023-05-22T15:45:01.466Z,8.17
2023-05-22T15:47:28.503Z,7.17
2023-05-22T15:49:54.723Z,9.80
2023-05-22T15:52:22.654Z,6.47
2023-05-22T15:54:48.777Z,6.73
2023-05-22T15:57:15.631Z,7.60
2023-05-22T15:59:41.863Z,6.23
2023-05-22T16:02:07.975Z,6.40
2023-05-22T16:04:34.118Z,5.90
2023-05-22T16:07:00.260Z,7.60
2023-05-22T16:09:26.468Z,6.10
2023-05-22T16:11:52.667Z,6.90
2023-05-22T16:14:18.800Z,10.77
2023-05-22T16:16:44.984Z,6.50
2023-05-22T16:19:11.224Z,7.23
2023-05-22T16:21:37.820Z,7.97
2023-05-22T16:24:05.772Z,11.20
2023-05-22T16:26:32.108Z,7.67
2023-05-22T16:28:58.221Z,14.57
2023-05-22T16:31:24.392Z,9.13
2023-05-22T16:33:52.314Z,8.43
2023-05-22T16:36:18.537Z,7.00
2023-05-22T16:38:44.684Z,7.50
2023-05-22T16:41:10.828Z,11.70
2023-05-22T16:43:38.002Z,7.67
2023-05-22T16:46:04.222Z,6.87
2023-05-22T16:48:30.333Z,6.00
2023-05-22T16:50:56.488Z,10.63
2023-05-22T16:53:22.618Z,13.07
2023-05-22T16:55:48.857Z,7.37
2023-05-22T16:58:15.117Z,12.00
2023-05-22T17:00:41.663Z,6.50
2023-05-22T17:03:09.404Z,9.00
2023-05-22T17:05:36.969Z,6.73
2023-05-22T17:08:03.633Z,6.90
2023-05-22T17:10:29.859Z,7.70
2023-05-22T17:12:56.111Z,8.40
2023-05-22T17:15:22.433Z,7.53
2023-05-22T17:17:48.911Z,8.17
2023-05-22T17:20:16.074Z,6.73
2023-05-22T17:22:42.418Z,6.17
2023-05-22T17:25:09.129Z,6.67
2023-05-22T17:27:36.422Z,6.77
2023-05-22T17:30:04.613Z,9.67
2023-05-22T17:32:30.918Z,7.30
2023-05-22T17:34:57.246Z,8.40
2023-05-22T17:37:23.440Z,7.23
2023-05-22T17:39:49.585Z,5.77
2023-05-22T17:42:15.775Z,6.40
2023-05-22T17:44:41.905Z,7.77
2023-05-22T17:47:08.224Z,6.60
2023-05-22T17:49:36.441Z,8.00
2023-05-22T17:52:02.614Z,7.30
2023-05-22T17:54:35.039Z,7.17
2023-05-22T17:57:03.336Z,6.73
2023-05-22T17:59:31.679Z,7.73
2023-05-22T18:01:57.854Z,6.37
2023-05-22T18:04:24.006Z,6.23
2023-05-22T18:06:50.114Z,15.63
2023-05-22T18:09:30.908Z,8.50
2023-05-22T18:11:58.168Z,11.40
2023-05-22T18:14:24.295Z,9.40
2023-05-22T18:16:50.409Z,13.00
2023-05-22T18:19:16.552Z,6.87
2023-05-22T18:21:42.867Z,6.43
2023-05-22T18:24:09.129Z,6.00
2023-05-22T18:26:35.287Z,7.40
2023-05-22T18:29:01.396Z,7.40
2023-05-22T18:31:27.553Z,7.90
2023-05-22T18:33:53.735Z,6.70
2023-05-22T18:36:19.996Z,6.90
2023-05-22T18:38:46.196Z,8.73
2023-05-22T18:41:12.336Z,8.07
2023-05-22T18:43:38.473Z,7.20
2023-05-22T18:46:04.587Z,7.07
2023-05-22T18:48:32.373Z,6.63
2023-05-22T18:50:58.669Z,7.50
2023-05-22T18:53:25.484Z,7.17
2023-05-22T18:55:52.998Z,7.57
2023-05-22T18:58:19.251Z,7.33
2023-05-22T19:00:45.530Z,6.73
2023-05-22T19:03:11.701Z,6.97
2023-05-22T19:05:37.872Z,8.30
2023-05-22T19:08:04.529Z,8.73
2023-05-22T19:10:30.742Z,7.60
2023-05-22T19:12:56.850Z,7.93
2023-05-22T19:15:22.983Z,7.80
2023-05-22T19:17:49.180Z,8.13
2023-05-22T19:20:15.534Z,8.17
2023-05-22T19:22:41.651Z,7.40
2023-05-22T19:25:08.115Z,7.00
2023-05-22T19:27:35.671Z,7.47
2023-05-22T19:30:04.526Z,7.67
2023-05-22T19:32:30.750Z,6.70
2023-05-22T19:34:56.921Z,7.30
2023-05-22T19:37:23.580Z,7.77
2023-05-22T19:39:50.165Z,7.43
2023-05-22T19:42:16.618Z,6.70
2023-05-22T19:44:42.972Z,7.70
2023-05-22T19:47:09.387Z,6.83
2023-05-22T19:49:36.371Z,7.37
2023-05-22T19:52:03.978Z,7.33
2023-05-22T19:54:30.131Z,7.30
2023-05-22T19:56:56.269Z,6.90
2023-05-22T19:59:22.733Z,6.80
2023-05-22T20:01:49.614Z,7.30
2023-05-22T20:04:17.227Z,7.00
2023-05-22T20:06:44.501Z,6.77
2023-05-22T20:09:10.880Z,6.40
2023-05-22T20:11:37.075Z,7.10
2023-05-22T20:14:03.209Z,12.03
2023-05-22T20:16:29.611Z,7.97
2023-05-22T20:18:55.954Z,7.97
2023-05-22T20:21:22.155Z,6.30
2023-05-22T20:23:48.354Z,6.97
2023-05-22T20:26:14.887Z,6.27
2023-05-22T20:28:41.314Z,6.20
2023-05-22T20:31:07.570Z,6.97
2023-05-22T20:33:33.744Z,6.30
2023-05-22T20:36:00.799Z,7.33
2023-05-22T20:38:27.842Z,6.47
2023-05-22T20:40:54.092Z,6.87
2023-05-22T20:43:20.321Z,7.10
2023-05-22T20:45:46.646Z,6.73
2023-05-22T20:48:12.911Z,6.80
2023-05-22T20:50:40.031Z,6.53
2023-05-22T20:53:06.431Z,6.90
2023-05-22T20:55:33.001Z,6.73
2023-05-22T20:57:59.172Z,6.57
2023-05-22T21:00:25.281Z,6.97
2023-05-22T21:02:51.450Z,6.33
2023-05-22T21:05:17.636Z,6.90
2023-05-22T21:07:43.771Z,7.63
2023-05-22T21:10:10.313Z,7.20
2023-05-22T21:12:36.465Z,6.83
2023-05-22T21:15:03.270Z,6.90
2023-05-22T21:17:29.406Z,6.47
2023-05-22T21:19:55.552Z,7.67
2023-05-22T21:22:21.694Z,7.40
2023-05-22T21:24:48.056Z,7.40
2023-05-22T21:27:14.268Z,6.97
2023-05-22T21:29:40.533Z,7.20
2023-05-22T21:32:07.293Z,7.30
2023-05-22T21:34:33.436Z,7.67
2023-05-22T21:36:59.674Z,6.60
2023-05-22T21:39:25.795Z,6.97
2023-05-22T21:41:52.170Z,6.23
2023-05-22T21:44:18.325Z,6.70
2023-05-22T21:46:44.515Z,6.53
2023-05-22T21:49:10.693Z,7.27
2023-05-22T21:51:36.807Z,6.30
2023-05-22T21:54:03.092Z,6.37
2023-05-22T21:56:29.228Z,7.13
2023-05-22T21:58:55.351Z,6.60
2023-05-22T22:01:21.627Z,6.30
2023-05-22T22:03:47.870Z,6.37
2023-05-22T22:06:14.148Z,5.97
2023-05-22T22:08:40.378Z,6.53
2023-05-22T22:11:06.512Z,6.30
2023-05-22T22:13:32.710Z,6.30
2023-05-22T22:15:58.946Z,6.73
2023-05-22T22:18:25.370Z,6.37
2023-05-22T22:20:53.346Z,7.10
2023-05-22T22:23:22.434Z,6.33
2023-05-22T22:25:48.812Z,6.10
2023-05-22T22:28:15.192Z,6.57
2023-05-22T22:30:41.546Z,6.50
2023-05-22T22:33:07.968Z,6.10
2023-05-22T22:35:34.187Z,6.50
2023-05-22T22:38:00.512Z,6.60
2023-05-22T22:40:27.009Z,6.77
2023-05-22T22:42:53.315Z,6.53
2023-05-22T22:45:19.653Z,6.30
2023-05-22T22:47:45.818Z,6.30
2023-05-22T22:50:12.065Z,6.90
2023-05-22T22:52:38.197Z,6.67
2023-05-22T22:55:06.015Z,6.37
2023-05-22T22:57:32.307Z,6.80
2023-05-22T22:59:58.441Z,6.27
2023-05-22T23:02:24.596Z,7.50
2023-05-22T23:04:51.087Z,6.93
2023-05-22T23:07:17.306Z,6.63
2023-05-22T23:09:43.480Z,6.27
2023-05-22T23:12:09.730Z,6.80
2023-05-22T23:14:36.982Z,6.27
2023-05-22T23:17:03.599Z,7.33
2023-05-22T23:19:30.165Z,6.50
2023-05-22T23:21:56.318Z,6.80
2023-05-22T23:24:22.432Z,7.90
2023-05-22T23:26:48.615Z,7.57
2023-05-22T23:29:14.765Z,7.10
2023-05-22T23:31:40.977Z,7.30
2023-05-22T23:34:07.121Z,7.33
2023-05-22T23:36:33.318Z,7.10
2023-05-22T23:38:59.478Z,7.40
2023-05-22T23:41:26.784Z,6.57
2023-05-22T23:43:52.882Z,7.20
2023-05-22T23:46:20.439Z,7.73
2023-05-22T23:48:46.612Z,6.70
2023-05-22T23:51:14.731Z,7.27
2023-05-22T23:53:41.304Z,7.00
2023-05-22T23:56:08.332Z,7.40
2023-05-22T23:58:34.618Z,6.73
